sensor_id;sensor_type;location;lat;lon;timestamp;temperature;humidity
39751;DHT22;37579;51.074;17.004;2022-08-25T00:01:20;23.80;80.20
39751;DHT22;37579;51.074;17.004;2022-08-25T00:03:47;23.80;80.20
39751;DHT22;37579;51.074;17.004;2022-08-25T00:06:14;23.80;80.30
39751;DHT22;37579;51.074;17.004;2022-08-25T00:08:40;23.80;80.40
39751;DHT22;37579;51.074;17.004;2022-08-25T00:11:08;23.80;80.30
39751;DHT22;37579;51.074;17.004;2022-08-25T00:13:37;23.80;80.50
39751;DHT22;37579;51.074;17.004;2022-08-25T00:16:03;23.80;80.40
39751;DHT22;37579;51.074;17.004;2022-08-25T00:18:29;23.80;80.30
39751;DHT22;37579;51.074;17.004;2022-08-25T00:20:55;23.80;80.50
39751;DHT22;37579;51.074;17.004;2022-08-25T00:23:21;23.70;80.40
39751;DHT22;37579;51.074;17.004;2022-08-25T00:25:47;23.70;80.40
39751;DHT22;37579;51.074;17.004;2022-08-25T00:28:13;23.70;80.30
39751;DHT22;37579;51.074;17.004;2022-08-25T00:30:41;23.70;80.40
39751;DHT22;37579;51.074;17.004;2022-08-25T00:33:07;23.70;80.40
39751;DHT22;37579;51.074;17.004;2022-08-25T00:35:33;23.70;80.20
39751;DHT22;37579;51.074;17.004;2022-08-25T00:38:00;23.70;80.20
39751;DHT22;37579;51.074;17.004;2022-08-25T00:40:27;23.70;80.30
39751;DHT22;37579;51.074;17.004;2022-08-25T00:42:54;23.70;80.30
39751;DHT22;37579;51.074;17.004;2022-08-25T00:45:21;23.70;80.20
39751;DHT22;37579;51.074;17.004;2022-08-25T00:47:48;23.70;80.20
39751;DHT22;37579;51.074;17.004;2022-08-25T00:50:15;23.70;80.10
39751;DHT22;37579;51.074;17.004;2022-08-25T00:52:45;23.70;80.10
39751;DHT22;37579;51.074;17.004;2022-08-25T00:55:24;23.60;80.20
39751;DHT22;37579;51.074;17.004;2022-08-25T00:57:54;23.60;80.20
39751;DHT22;37579;51.074;17.004;2022-08-25T01:00:30;23.60;80.10
39751;DHT22;37579;51.074;17.004;2022-08-25T01:02:57;23.60;80.10
39751;DHT22;37579;51.074;17.004;2022-08-25T01:05:24;23.60;80.00
39751;DHT22;37579;51.074;17.004;2022-08-25T01:07:50;23.60;80.00
39751;DHT22;37579;51.074;17.004;2022-08-25T01:10:18;23.50;80.00
39751;DHT22;37579;51.074;17.004;2022-08-25T01:12:44;23.50;80.00
39751;DHT22;37579;51.074;17.004;2022-08-25T01:15:11;23.50;80.00
39751;DHT22;37579;51.074;17.004;2022-08-25T01:17:48;23.50;80.10
39751;DHT22;37579;51.074;17.004;2022-08-25T01:20:15;23.50;80.10
39751;DHT22;37579;51.074;17.004;2022-08-25T01:22:42;23.50;80.30
39751;DHT22;37579;51.074;17.004;2022-08-25T01:25:37;23.50;80.30
39751;DHT22;37579;51.074;17.004;2022-08-25T01:28:06;23.50;80.20
39751;DHT22;37579;51.074;17.004;2022-08-25T01:30:32;23.50;80.10
39751;DHT22;37579;51.074;17.004;2022-08-25T01:32:58;23.50;80.10
39751;DHT22;37579;51.074;17.004;2022-08-25T01:35:23;23.50;80.20
39751;DHT22;37579;51.074;17.004;2022-08-25T01:37:49;23.50;80.00
39751;DHT22;37579;51.074;17.004;2022-08-25T01:40:15;23.50;80.00
39751;DHT22;37579;51.074;17.004;2022-08-25T01:42:57;23.50;80.00
39751;DHT22;37579;51.074;17.004;2022-08-25T01:45:26;23.50;80.00
39751;DHT22;37579;51.074;17.004;2022-08-25T01:47:53;23.40;79.90
39751;DHT22;37579;51.074;17.004;2022-08-25T01:50:19;23.40;79.90
39751;DHT22;37579;51.074;17.004;2022-08-25T01:52:57;23.40;79.80
39751;DHT22;37579;51.074;17.004;2022-08-25T01:55:24;23.40;79.80
39751;DHT22;37579;51.074;17.004;2022-08-25T01:57:50;23.40;79.90
39751;DHT22;37579;51.074;17.004;2022-08-25T02:00:16;23.40;79.80
39751;DHT22;37579;51.074;17.004;2022-08-25T02:02:45;23.40;79.80
39751;DHT22;37579;51.074;17.004;2022-08-25T02:05:12;23.40;79.80
39751;DHT22;37579;51.074;17.004;2022-08-25T02:07:38;23.30;79.60
39751;DHT22;37579;51.074;17.004;2022-08-25T02:10:05;23.30;79.60
39751;DHT22;37579;51.074;17.004;2022-08-25T02:12:32;23.30;79.70
39751;DHT22;37579;51.074;17.004;2022-08-25T02:14:59;23.30;79.80
39751;DHT22;37579;51.074;17.004;2022-08-25T02:17:27;23.30;79.70
39751;DHT22;37579;51.074;17.004;2022-08-25T02:19:53;23.30;79.70
39751;DHT22;37579;51.074;17.004;2022-08-25T02:22:22;23.30;79.70
39751;DHT22;37579;51.074;17.004;2022-08-25T02:24:48;23.30;79.70
39751;DHT22;37579;51.074;17.004;2022-08-25T02:27:13;23.30;79.60
39751;DHT22;37579;51.074;17.004;2022-08-25T02:29:39;23.30;79.60
39751;DHT22;37579;51.074;17.004;2022-08-25T02:32:05;23.20;79.50
39751;DHT22;37579;51.074;17.004;2022-08-25T02:34:31;23.20;79.50
39751;DHT22;37579;51.074;17.004;2022-08-25T02:36:57;23.20;79.50
39751;DHT22;37579;51.074;17.004;2022-08-25T02:39:23;23.20;79.60
39751;DHT22;37579;51.074;17.004;2022-08-25T02:41:49;23.20;79.60
39751;DHT22;37579;51.074;17.004;2022-08-25T02:44:14;23.20;79.50
39751;DHT22;37579;51.074;17.004;2022-08-25T02:46:40;23.20;79.40
39751;DHT22;37579;51.074;17.004;2022-08-25T02:49:06;23.20;79.50
39751;DHT22;37579;51.074;17.004;2022-08-25T02:51:32;23.20;79.50
39751;DHT22;37579;51.074;17.004;2022-08-25T02:54:00;23.10;79.50
39751;DHT22;37579;51.074;17.004;2022-08-25T02:56:28;23.10;79.60
39751;DHT22;37579;51.074;17.004;2022-08-25T02:58:54;23.20;79.60
39751;DHT22;37579;51.074;17.004;2022-08-25T03:01:20;23.10;79.60
39751;DHT22;37579;51.074;17.004;2022-08-25T03:03:47;23.10;79.50
39751;DHT22;37579;51.074;17.004;2022-08-25T03:06:16;23.10;79.40
39751;DHT22;37579;51.074;17.004;2022-08-25T03:08:43;23.10;79.50
39751;DHT22;37579;51.074;17.004;2022-08-25T03:11:10;23.10;79.50
39751;DHT22;37579;51.074;17.004;2022-08-25T03:13:36;23.10;79.60
39751;DHT22;37579;51.074;17.004;2022-08-25T03:16:04;23.10;79.60
39751;DHT22;37579;51.074;17.004;2022-08-25T03:18:30;23.10;79.70
39751;DHT22;37579;51.074;17.004;2022-08-25T03:20:56;23.00;79.60
39751;DHT22;37579;51.074;17.004;2022-08-25T03:23:22;23.10;79.70
39751;DHT22;37579;51.074;17.004;2022-08-25T03:25:48;23.00;79.60
39751;DHT22;37579;51.074;17.004;2022-08-25T03:28:32;23.00;79.70
39751;DHT22;37579;51.074;17.004;2022-08-25T03:30:59;23.00;79.60
39751;DHT22;37579;51.074;17.004;2022-08-25T03:33:26;23.00;79.50
39751;DHT22;37579;51.074;17.004;2022-08-25T03:35:52;23.00;79.40
39751;DHT22;37579;51.074;17.004;2022-08-25T03:38:20;23.00;79.60
39751;DHT22;37579;51.074;17.004;2022-08-25T03:40:45;22.90;79.60
39751;DHT22;37579;51.074;17.004;2022-08-25T03:43:11;23.00;79.50
39751;DHT22;37579;51.074;17.004;2022-08-25T03:45:42;23.00;79.60
39751;DHT22;37579;51.074;17.004;2022-08-25T03:48:08;23.00;79.70
39751;DHT22;37579;51.074;17.004;2022-08-25T03:50:34;23.00;79.70
39751;DHT22;37579;51.074;17.004;2022-08-25T03:53:01;23.00;79.60
39751;DHT22;37579;51.074;17.004;2022-08-25T03:55:26;22.90;79.60
39751;DHT22;37579;51.074;17.004;2022-08-25T03:57:53;23.00;79.60
39751;DHT22;37579;51.074;17.004;2022-08-25T04:00:20;22.90;79.60
39751;DHT22;37579;51.074;17.004;2022-08-25T04:02:46;22.90;79.70
39751;DHT22;37579;51.074;17.004;2022-08-25T04:05:13;22.90;79.70
39751;DHT22;37579;51.074;17.004;2022-08-25T04:07:39;22.90;79.80
39751;DHT22;37579;51.074;17.004;2022-08-25T04:10:06;22.90;79.70
39751;DHT22;37579;51.074;17.004;2022-08-25T04:12:33;22.90;79.70
39751;DHT22;37579;51.074;17.004;2022-08-25T04:14:59;22.90;79.70
39751;DHT22;37579;51.074;17.004;2022-08-25T04:17:25;22.90;79.70
39751;DHT22;37579;51.074;17.004;2022-08-25T04:19:51;22.90;79.80
39751;DHT22;37579;51.074;17.004;2022-08-25T04:22:17;22.90;79.70
39751;DHT22;37579;51.074;17.004;2022-08-25T04:24:43;22.90;79.80
39751;DHT22;37579;51.074;17.004;2022-08-25T04:27:08;22.80;79.90
39751;DHT22;37579;51.074;17.004;2022-08-25T04:29:34;22.90;80.00
39751;DHT22;37579;51.074;17.004;2022-08-25T04:32:00;22.90;80.00
39751;DHT22;37579;51.074;17.004;2022-08-25T04:34:26;22.90;80.10
39751;DHT22;37579;51.074;17.004;2022-08-25T04:36:53;22.90;80.00
39751;DHT22;37579;51.074;17.004;2022-08-25T04:39:19;22.90;79.90
39751;DHT22;37579;51.074;17.004;2022-08-25T04:41:49;22.90;79.90
39751;DHT22;37579;51.074;17.004;2022-08-25T04:44:16;22.90;80.00
39751;DHT22;37579;51.074;17.004;2022-08-25T04:46:42;22.90;80.20
39751;DHT22;37579;51.074;17.004;2022-08-25T04:49:08;22.90;80.30
39751;DHT22;37579;51.074;17.004;2022-08-25T04:51:37;22.90;80.20
39751;DHT22;37579;51.074;17.004;2022-08-25T04:54:08;22.90;80.30
39751;DHT22;37579;51.074;17.004;2022-08-25T04:56:35;22.90;80.50
39751;DHT22;37579;51.074;17.004;2022-08-25T04:59:03;22.90;80.70
39751;DHT22;37579;51.074;17.004;2022-08-25T05:01:29;22.90;80.90
39751;DHT22;37579;51.074;17.004;2022-08-25T05:03:57;22.90;81.00
39751;DHT22;37579;51.074;17.004;2022-08-25T05:06:24;22.90;81.00
39751;DHT22;37579;51.074;17.004;2022-08-25T05:08:50;22.90;81.20
39751;DHT22;37579;51.074;17.004;2022-08-25T05:11:17;23.00;81.20
39751;DHT22;37579;51.074;17.004;2022-08-25T05:13:45;23.00;81.30
39751;DHT22;37579;51.074;17.004;2022-08-25T05:16:11;23.00;81.40
39751;DHT22;37579;51.074;17.004;2022-08-25T05:18:37;23.00;81.60
39751;DHT22;37579;51.074;17.004;2022-08-25T05:21:06;23.00;81.80
39751;DHT22;37579;51.074;17.004;2022-08-25T05:23:32;23.00;81.80
39751;DHT22;37579;51.074;17.004;2022-08-25T05:26:20;23.00;81.90
39751;DHT22;37579;51.074;17.004;2022-08-25T05:28:49;23.00;81.90
39751;DHT22;37579;51.074;17.004;2022-08-25T05:31:15;23.00;82.10
39751;DHT22;37579;51.074;17.004;2022-08-25T05:33:42;23.00;82.10
39751;DHT22;37579;51.074;17.004;2022-08-25T05:36:09;23.10;82.30
39751;DHT22;37579;51.074;17.004;2022-08-25T05:38:36;23.10;82.30
39751;DHT22;37579;51.074;17.004;2022-08-25T05:41:12;23.10;82.30
39751;DHT22;37579;51.074;17.004;2022-08-25T05:43:41;23.10;82.30
39751;DHT22;37579;51.074;17.004;2022-08-25T05:46:08;23.10;82.40
39751;DHT22;37579;51.074;17.004;2022-08-25T05:48:34;23.10;82.40
39751;DHT22;37579;51.074;17.004;2022-08-25T05:51:01;23.10;82.60
39751;DHT22;37579;51.074;17.004;2022-08-25T05:53:28;23.20;82.60
39751;DHT22;37579;51.074;17.004;2022-08-25T05:55:56;23.20;82.60
39751;DHT22;37579;51.074;17.004;2022-08-25T05:58:23;23.20;82.60
39751;DHT22;37579;51.074;17.004;2022-08-25T06:00:51;23.20;82.70
39751;DHT22;37579;51.074;17.004;2022-08-25T06:03:17;23.20;82.80
39751;DHT22;37579;51.074;17.004;2022-08-25T06:05:43;23.20;83.00
39751;DHT22;37579;51.074;17.004;2022-08-25T06:08:08;23.20;83.00
39751;DHT22;37579;51.074;17.004;2022-08-25T06:10:36;23.20;83.00
39751;DHT22;37579;51.074;17.004;2022-08-25T06:13:02;23.20;83.10
39751;DHT22;37579;51.074;17.004;2022-08-25T06:15:28;23.30;83.00
39751;DHT22;37579;51.074;17.004;2022-08-25T06:17:54;23.50;81.90
39751;DHT22;37579;51.074;17.004;2022-08-25T06:20:25;23.60;80.60
39751;DHT22;37579;51.074;17.004;2022-08-25T06:22:52;23.70;79.80
39751;DHT22;37579;51.074;17.004;2022-08-25T06:25:20;23.80;79.60
39751;DHT22;37579;51.074;17.004;2022-08-25T06:27:47;23.90;79.40
39751;DHT22;37579;51.074;17.004;2022-08-25T06:30:16;23.90;78.90
39751;DHT22;37579;51.074;17.004;2022-08-25T06:32:43;23.90;78.70
39751;DHT22;37579;51.074;17.004;2022-08-25T06:35:11;24.00;78.50
39751;DHT22;37579;51.074;17.004;2022-08-25T06:37:37;24.00;78.20
39751;DHT22;37579;51.074;17.004;2022-08-25T06:40:04;24.10;78.10
39751;DHT22;37579;51.074;17.004;2022-08-25T06:42:31;24.10;77.80
39751;DHT22;37579;51.074;17.004;2022-08-25T06:44:57;24.20;77.50
39751;DHT22;37579;51.074;17.004;2022-08-25T06:47:23;24.30;77.40
39751;DHT22;37579;51.074;17.004;2022-08-25T06:49:49;24.30;77.10
39751;DHT22;37579;51.074;17.004;2022-08-25T06:52:15;24.40;76.90
39751;DHT22;37579;51.074;17.004;2022-08-25T06:54:41;24.50;76.60
39751;DHT22;37579;51.074;17.004;2022-08-25T06:57:07;24.50;76.30
39751;DHT22;37579;51.074;17.004;2022-08-25T06:59:34;24.60;76.00
39751;DHT22;37579;51.074;17.004;2022-08-25T07:02:01;24.70;75.90
39751;DHT22;37579;51.074;17.004;2022-08-25T07:04:28;24.80;76.10
39751;DHT22;37579;51.074;17.004;2022-08-25T07:06:54;24.70;76.40
39751;DHT22;37579;51.074;17.004;2022-08-25T07:09:19;24.80;76.10
39751;DHT22;37579;51.074;17.004;2022-08-25T07:11:45;24.90;76.10
39751;DHT22;37579;51.074;17.004;2022-08-25T07:14:13;25.00;76.10
39751;DHT22;37579;51.074;17.004;2022-08-25T07:16:40;25.00;75.90
39751;DHT22;37579;51.074;17.004;2022-08-25T07:19:07;25.20;75.40
39751;DHT22;37579;51.074;17.004;2022-08-25T07:21:35;25.30;75.00
39751;DHT22;37579;51.074;17.004;2022-08-25T07:24:08;25.40;74.70
39751;DHT22;37579;51.074;17.004;2022-08-25T07:26:34;25.40;74.80
39751;DHT22;37579;51.074;17.004;2022-08-25T07:29:03;25.40;74.70
39751;DHT22;37579;51.074;17.004;2022-08-25T07:31:29;25.50;74.30
39751;DHT22;37579;51.074;17.004;2022-08-25T07:33:55;25.60;74.50
39751;DHT22;37579;51.074;17.004;2022-08-25T07:36:39;25.60;75.10
39751;DHT22;37579;51.074;17.004;2022-08-25T07:39:05;25.60;74.90
39751;DHT22;37579;51.074;17.004;2022-08-25T07:41:41;25.60;74.70
39751;DHT22;37579;51.074;17.004;2022-08-25T07:44:08;25.60;74.50
39751;DHT22;37579;51.074;17.004;2022-08-25T07:46:34;25.60;74.30
39751;DHT22;37579;51.074;17.004;2022-08-25T07:49:00;25.70;74.30
39751;DHT22;37579;51.074;17.004;2022-08-25T07:51:26;25.70;74.30
39751;DHT22;37579;51.074;17.004;2022-08-25T07:53:52;25.70;74.00
39751;DHT22;37579;51.074;17.004;2022-08-25T07:56:18;25.70;74.50
39751;DHT22;37579;51.074;17.004;2022-08-25T07:58:44;25.80;74.60
39751;DHT22;37579;51.074;17.004;2022-08-25T08:01:19;25.80;74.40
39751;DHT22;37579;51.074;17.004;2022-08-25T08:03:46;25.80;74.30
39751;DHT22;37579;51.074;17.004;2022-08-25T08:06:14;25.80;74.50
39751;DHT22;37579;51.074;17.004;2022-08-25T08:08:42;25.80;74.30
39751;DHT22;37579;51.074;17.004;2022-08-25T08:13:45;25.80;74.50
39751;DHT22;37579;51.074;17.004;2022-08-25T08:16:13;25.70;75.60
39751;DHT22;37579;51.074;17.004;2022-08-25T08:18:44;25.70;75.30
39751;DHT22;37579;51.074;17.004;2022-08-25T08:21:14;25.70;76.00
39751;DHT22;37579;51.074;17.004;2022-08-25T08:23:40;25.60;75.80
39751;DHT22;37579;51.074;17.004;2022-08-25T08:26:06;25.50;76.10
39751;DHT22;37579;51.074;17.004;2022-08-25T08:28:32;25.60;76.00
39751;DHT22;37579;51.074;17.004;2022-08-25T08:30:57;25.70;75.60
39751;DHT22;37579;51.074;17.004;2022-08-25T08:33:23;25.80;75.40
39751;DHT22;37579;51.074;17.004;2022-08-25T08:36:16;25.80;75.50
39751;DHT22;37579;51.074;17.004;2022-08-25T08:38:44;25.60;75.10
39751;DHT22;37579;51.074;17.004;2022-08-25T08:52:40;25.90;74.90
39751;DHT22;37579;51.074;17.004;2022-08-25T08:58:29;26.00;74.60
39751;DHT22;37579;51.074;17.004;2022-08-25T09:00:57;26.10;74.60
39751;DHT22;37579;51.074;17.004;2022-08-25T09:03:34;26.10;74.20
39751;DHT22;37579;51.074;17.004;2022-08-25T09:06:07;26.20;74.20
39751;DHT22;37579;51.074;17.004;2022-08-25T09:08:33;26.20;73.60
39751;DHT22;37579;51.074;17.004;2022-08-25T09:16:43;26.30;73.50
39751;DHT22;37579;51.074;17.004;2022-08-25T09:25:22;26.10;73.90
39751;DHT22;37579;51.074;17.004;2022-08-25T09:28:07;26.00;74.10
39751;DHT22;37579;51.074;17.004;2022-08-25T09:30:42;26.00;73.90
39751;DHT22;37579;51.074;17.004;2022-08-25T09:33:11;26.00;72.10
39751;DHT22;37579;51.074;17.004;2022-08-25T09:35:40;25.80;72.00
39751;DHT22;37579;51.074;17.004;2022-08-25T09:38:09;25.80;72.40
39751;DHT22;37579;51.074;17.004;2022-08-25T09:40:38;25.80;72.40
39751;DHT22;37579;51.074;17.004;2022-08-25T09:43:19;25.90;73.00
39751;DHT22;37579;51.074;17.004;2022-08-25T09:45:48;25.80;73.40
39751;DHT22;37579;51.074;17.004;2022-08-25T09:50:47;25.80;72.40
39751;DHT22;37579;51.074;17.004;2022-08-25T09:53:15;25.60;71.50
39751;DHT22;37579;51.074;17.004;2022-08-25T09:55:43;25.70;71.70
39751;DHT22;37579;51.074;17.004;2022-08-25T09:58:22;25.80;71.30
39751;DHT22;37579;51.074;17.004;2022-08-25T10:01:05;25.80;70.20
39751;DHT22;37579;51.074;17.004;2022-08-25T10:03:31;25.90;70.10
39751;DHT22;37579;51.074;17.004;2022-08-25T10:06:11;25.80;69.50
39751;DHT22;37579;51.074;17.004;2022-08-25T10:08:50;25.80;69.80
39751;DHT22;37579;51.074;17.004;2022-08-25T10:16:32;25.70;70.60
39751;DHT22;37579;51.074;17.004;2022-08-25T10:22:11;25.80;71.00
39751;DHT22;37579;51.074;17.004;2022-08-25T10:24:39;25.80;71.20
39751;DHT22;37579;51.074;17.004;2022-08-25T10:38:07;25.80;69.80
39751;DHT22;37579;51.074;17.004;2022-08-25T10:40:53;26.00;67.80
39751;DHT22;37579;51.074;17.004;2022-08-25T10:43:48;25.90;68.00
39751;DHT22;37579;51.074;17.004;2022-08-25T10:49:02;25.90;69.40
39751;DHT22;37579;51.074;17.004;2022-08-25T10:51:47;25.90;69.30
39751;DHT22;37579;51.074;17.004;2022-08-25T10:54:26;25.90;69.70
39751;DHT22;37579;51.074;17.004;2022-08-25T10:59:56;25.90;70.30
39751;DHT22;37579;51.074;17.004;2022-08-25T11:07:47;25.90;70.50
39751;DHT22;37579;51.074;17.004;2022-08-25T11:10:21;25.90;70.90
39751;DHT22;37579;51.074;17.004;2022-08-25T11:12:53;25.80;71.10
39751;DHT22;37579;51.074;17.004;2022-08-25T11:15:26;25.90;71.20
39751;DHT22;37579;51.074;17.004;2022-08-25T11:20:34;25.90;71.80
39751;DHT22;37579;51.074;17.004;2022-08-25T11:23:10;25.90;71.90
39751;DHT22;37579;51.074;17.004;2022-08-25T11:25:45;25.80;72.00
39751;DHT22;37579;51.074;17.004;2022-08-25T11:30:46;25.90;72.70
39751;DHT22;37579;51.074;17.004;2022-08-25T11:33:13;26.00;72.70
39751;DHT22;37579;51.074;17.004;2022-08-25T11:35:42;26.00;72.50
39751;DHT22;37579;51.074;17.004;2022-08-25T11:41:16;26.20;72.30
39751;DHT22;37579;51.074;17.004;2022-08-25T11:47:05;26.30;71.50
39751;DHT22;37579;51.074;17.004;2022-08-25T11:49:59;26.30;71.50
39751;DHT22;37579;51.074;17.004;2022-08-25T12:00:47;26.40;71.50
39751;DHT22;37579;51.074;17.004;2022-08-25T12:06:26;26.40;71.60
39751;DHT22;37579;51.074;17.004;2022-08-25T12:09:17;26.40;71.40
39751;DHT22;37579;51.074;17.004;2022-08-25T12:11:52;26.50;71.80
39751;DHT22;37579;51.074;17.004;2022-08-25T12:24:51;26.70;71.10
39751;DHT22;37579;51.074;17.004;2022-08-25T12:27:41;26.60;71.30
39751;DHT22;37579;51.074;17.004;2022-08-25T12:30:27;26.70;70.90
39751;DHT22;37579;51.074;17.004;2022-08-25T12:38:15;26.80;70.70
39751;DHT22;37579;51.074;17.004;2022-08-25T12:45:50;26.90;70.70
39751;DHT22;37579;51.074;17.004;2022-08-25T12:51:18;26.90;71.20
39751;DHT22;37579;51.074;17.004;2022-08-25T13:07:39;26.90;71.00
39751;DHT22;37579;51.074;17.004;2022-08-25T13:10:30;27.00;71.00
39751;DHT22;37579;51.074;17.004;2022-08-25T13:23:47;27.00;70.70
39751;DHT22;37579;51.074;17.004;2022-08-25T13:26:15;26.90;70.70
39751;DHT22;37579;51.074;17.004;2022-08-25T13:28:41;26.90;70.50
39751;DHT22;37579;51.074;17.004;2022-08-25T13:31:15;26.90;70.40
39751;DHT22;37579;51.074;17.004;2022-08-25T13:33:57;26.90;70.30
39751;DHT22;37579;51.074;17.004;2022-08-25T13:36:26;26.80;70.30
39751;DHT22;37579;51.074;17.004;2022-08-25T13:39:18;26.80;70.20
39751;DHT22;37579;51.074;17.004;2022-08-25T13:41:54;26.80;70.10
39751;DHT22;37579;51.074;17.004;2022-08-25T13:44:22;26.80;70.20
39751;DHT22;37579;51.074;17.004;2022-08-25T13:49:33;26.90;70.00
39751;DHT22;37579;51.074;17.004;2022-08-25T13:51:59;26.80;70.00
39751;DHT22;37579;51.074;17.004;2022-08-25T13:54:30;26.80;69.90
39751;DHT22;37579;51.074;17.004;2022-08-25T13:57:21;26.80;70.10
39751;DHT22;37579;51.074;17.004;2022-08-25T14:00:24;26.80;70.50
39751;DHT22;37579;51.074;17.004;2022-08-25T14:02:52;26.70;70.90
39751;DHT22;37579;51.074;17.004;2022-08-25T14:05:38;26.70;71.00
39751;DHT22;37579;51.074;17.004;2022-08-25T14:08:06;26.70;70.80
39751;DHT22;37579;51.074;17.004;2022-08-25T14:10:39;26.70;70.70
39751;DHT22;37579;51.074;17.004;2022-08-25T14:15:52;26.80;70.50
39751;DHT22;37579;51.074;17.004;2022-08-25T14:18:21;26.70;70.30
39751;DHT22;37579;51.074;17.004;2022-08-25T14:20:51;26.70;70.40
39751;DHT22;37579;51.074;17.004;2022-08-25T14:23:25;26.60;70.70
39751;DHT22;37579;51.074;17.004;2022-08-25T14:25:55;26.70;70.30
39751;DHT22;37579;51.074;17.004;2022-08-25T14:28:25;26.70;70.50
39751;DHT22;37579;51.074;17.004;2022-08-25T14:30:53;26.60;70.70
39751;DHT22;37579;51.074;17.004;2022-08-25T14:33:23;26.60;71.00
39751;DHT22;37579;51.074;17.004;2022-08-25T14:35:52;26.50;71.10
39751;DHT22;37579;51.074;17.004;2022-08-25T14:38:19;26.50;71.20
39751;DHT22;37579;51.074;17.004;2022-08-25T14:40:45;26.50;71.50
39751;DHT22;37579;51.074;17.004;2022-08-25T14:43:11;26.60;71.50
39751;DHT22;37579;51.074;17.004;2022-08-25T14:45:41;26.70;71.30
39751;DHT22;37579;51.074;17.004;2022-08-25T14:48:12;26.60;71.40
39751;DHT22;37579;51.074;17.004;2022-08-25T14:50:38;26.50;71.60
39751;DHT22;37579;51.074;17.004;2022-08-25T14:53:06;26.60;71.90
39751;DHT22;37579;51.074;17.004;2022-08-25T14:55:32;26.60;71.60
39751;DHT22;37579;51.074;17.004;2022-08-25T14:57:58;26.60;71.60
39751;DHT22;37579;51.074;17.004;2022-08-25T15:00:24;26.50;72.00
39751;DHT22;37579;51.074;17.004;2022-08-25T15:02:50;26.50;71.90
39751;DHT22;37579;51.074;17.004;2022-08-25T15:05:20;26.50;72.30
39751;DHT22;37579;51.074;17.004;2022-08-25T15:07:49;26.50;72.50
39751;DHT22;37579;51.074;17.004;2022-08-25T15:10:33;26.50;72.20
39751;DHT22;37579;51.074;17.004;2022-08-25T15:12:59;26.50;72.00
39751;DHT22;37579;51.074;17.004;2022-08-25T15:15:25;26.50;72.00
39751;DHT22;37579;51.074;17.004;2022-08-25T15:17:53;26.50;71.70
39751;DHT22;37579;51.074;17.004;2022-08-25T15:20:19;26.50;71.70
39751;DHT22;37579;51.074;17.004;2022-08-25T15:22:45;26.50;72.20
39751;DHT22;37579;51.074;17.004;2022-08-25T15:25:13;26.50;72.10
39751;DHT22;37579;51.074;17.004;2022-08-25T15:27:39;26.50;72.10
39751;DHT22;37579;51.074;17.004;2022-08-25T15:30:05;26.50;71.80
39751;DHT22;37579;51.074;17.004;2022-08-25T15:32:31;26.50;71.90
39751;DHT22;37579;51.074;17.004;2022-08-25T15:34:58;26.40;72.70
39751;DHT22;37579;51.074;17.004;2022-08-25T15:37:24;26.50;72.60
39751;DHT22;37579;51.074;17.004;2022-08-25T15:39:50;26.50;71.90
39751;DHT22;37579;51.074;17.004;2022-08-25T15:42:16;26.60;71.70
39751;DHT22;37579;51.074;17.004;2022-08-25T15:44:43;26.60;71.70
39751;DHT22;37579;51.074;17.004;2022-08-25T15:47:09;26.60;71.80
39751;DHT22;37579;51.074;17.004;2022-08-25T15:49:34;26.60;71.60
39751;DHT22;37579;51.074;17.004;2022-08-25T15:52:00;26.60;71.60
39751;DHT22;37579;51.074;17.004;2022-08-25T15:54:28;26.70;71.70
39751;DHT22;37579;51.074;17.004;2022-08-25T15:56:55;26.70;71.70
39751;DHT22;37579;51.074;17.004;2022-08-25T15:59:22;26.70;71.80
39751;DHT22;37579;51.074;17.004;2022-08-25T16:01:48;26.70;71.80
39751;DHT22;37579;51.074;17.004;2022-08-25T16:04:19;26.70;72.60
39751;DHT22;37579;51.074;17.004;2022-08-25T16:06:45;26.80;72.70
39751;DHT22;37579;51.074;17.004;2022-08-25T16:09:11;26.70;72.90
39751;DHT22;37579;51.074;17.004;2022-08-25T16:11:37;26.70;72.80
39751;DHT22;37579;51.074;17.004;2022-08-25T16:14:03;26.60;73.10
39751;DHT22;37579;51.074;17.004;2022-08-25T16:16:31;26.60;73.30
39751;DHT22;37579;51.074;17.004;2022-08-25T16:18:57;26.70;73.30
39751;DHT22;37579;51.074;17.004;2022-08-25T16:21:26;26.60;73.40
39751;DHT22;37579;51.074;17.004;2022-08-25T16:23:55;26.60;73.40
39751;DHT22;37579;51.074;17.004;2022-08-25T16:26:21;26.60;73.90
39751;DHT22;37579;51.074;17.004;2022-08-25T16:28:47;26.70;73.90
39751;DHT22;37579;51.074;17.004;2022-08-25T16:31:15;26.60;73.80
39751;DHT22;37579;51.074;17.004;2022-08-25T16:33:41;26.60;73.70
39751;DHT22;37579;51.074;17.004;2022-08-25T16:36:10;26.50;73.90
39751;DHT22;37579;51.074;17.004;2022-08-25T16:38:39;26.50;74.10
39751;DHT22;37579;51.074;17.004;2022-08-25T16:41:09;26.40;74.00
39751;DHT22;37579;51.074;17.004;2022-08-25T16:43:36;26.40;74.70
39751;DHT22;37579;51.074;17.004;2022-08-25T16:46:04;26.40;74.10
39751;DHT22;37579;51.074;17.004;2022-08-25T16:48:31;26.40;74.10
39751;DHT22;37579;51.074;17.004;2022-08-25T16:50:57;26.40;74.30
39751;DHT22;37579;51.074;17.004;2022-08-25T16:53:24;26.40;74.40
39751;DHT22;37579;51.074;17.004;2022-08-25T16:56:08;26.40;74.30
39751;DHT22;37579;51.074;17.004;2022-08-25T16:58:36;26.30;74.20
39751;DHT22;37579;51.074;17.004;2022-08-25T17:01:10;26.30;74.30
39751;DHT22;37579;51.074;17.004;2022-08-25T17:03:38;26.30;74.30
39751;DHT22;37579;51.074;17.004;2022-08-25T17:06:05;26.30;74.30
39751;DHT22;37579;51.074;17.004;2022-08-25T17:08:33;26.40;74.50
39751;DHT22;37579;51.074;17.004;2022-08-25T17:13:39;26.30;74.60
39751;DHT22;37579;51.074;17.004;2022-08-25T17:16:05;26.20;74.60
39751;DHT22;37579;51.074;17.004;2022-08-25T17:18:31;26.30;75.00
39751;DHT22;37579;51.074;17.004;2022-08-25T17:21:04;26.20;74.80
39751;DHT22;37579;51.074;17.004;2022-08-25T17:23:30;26.20;74.80
39751;DHT22;37579;51.074;17.004;2022-08-25T17:25:57;26.30;74.60
39751;DHT22;37579;51.074;17.004;2022-08-25T17:28:23;26.30;74.80
39751;DHT22;37579;51.074;17.004;2022-08-25T17:30:49;26.20;74.70
39751;DHT22;37579;51.074;17.004;2022-08-25T17:33:17;26.20;74.80
39751;DHT22;37579;51.074;17.004;2022-08-25T17:35:45;26.20;74.90
39751;DHT22;37579;51.074;17.004;2022-08-25T17:38:12;26.20;75.10
39751;DHT22;37579;51.074;17.004;2022-08-25T17:40:38;26.20;74.90
39751;DHT22;37579;51.074;17.004;2022-08-25T17:43:04;26.20;74.90
39751;DHT22;37579;51.074;17.004;2022-08-25T17:45:30;26.20;75.10
39751;DHT22;37579;51.074;17.004;2022-08-25T17:47:56;26.20;75.50